Terminal Aerodrome Forecast
Issued by NWS Grand Forks, ND

Home | Current Version | Previous Version | Text Only | Print | Product List | Glossary On
Versions: 1 2 3 4 5 6 7 8 9 10 11 12
000
FTUS43 KFGF 260500
TAFFAR
TAF
KFAR 260520Z 2606/2706 VRB04KT P6SM SKC
     FM261200 14009KT P6SM FEW250
     FM261500 14014G20KT P6SM SCT250
     FM261800 15018G28KT P6SM SCT250
     FM262300 15014KT P6SM FEW250=

USA.gov is the U.S. government's official web portal to all federal, state and local government web resources and services.